メインページ
METAR-TAF:

METAR-TAF

空港 :

ラシュト, イラン

緯度: 37-12N, 経度: 049-38E, 海抜: -7m

現時点の気象観測

当レポートは13分前の17:00(UTC)に作成
西の風 6kt
気温 10°C
湿度 93%
気圧 1024 hPa
視程: 6000m
高度1500ftの千切れ雲あり
高度2000ftの雲はほとんどない, 積乱雲.
高度6000ftの曇り

METAR: OIGG 171700Z 28006KT 6000 RA BKN015 FEW020CB OVC060 10/09 Q1024

時間: 20:43 (17:13 UTC)


TAF: 見つかりません

4,000以上の空港の気象観測と天気予報(METAR報とTAF報)

利用可能な観測所は地図上に黄色い丸と赤い丸で示す。

丸の上にカーソルを重ねると観測所名を参照できる。

次にクリックすると気象観測と天気予報を参照できる。

マップの切り替え:黒色「×」印の緑ボタンをクリックして拡大、「-」印の緑ボタンをクリックして縮小、緑色の三角印をクリックして隣りの地図に切り替え


METAR-TAF: